Knotts Island, NC (27950)

4:43 PM EDT on August 28, 2016 (GMT -0400)
KNCMOYOC1 | | Change Station

Elev 5 ft 36.46 °N, 76.09 °W | Updated 13 seconds ago

Mostly Cloudy
Mostly Cloudy
81.5 °F
Feels Like 88 °F
N
7.0
Wind Variable Wind from East
Gusts 16.0 mph

Today
High -- | Low -- °F
--% Chance of Precip.
Yesterday
High -- | Low -- °F
Precip. -- in
Pressure 30.14 in
Visibility 10.0 miles
Clouds Mostly Cloudy 2600 ft
Heat Index 88 °F
Dew Point 76 °F
Humidity 83%
Rainfall 0.00 in
Snow Depth Not available.
6:32 AM 7:37 PM
Waning Crescent, 13% visible
METAR KCPK 282035Z AUTO 01009KT 10SM BKN026 28/21 A3014 RMK AO2 T02760212
Pressure 30.14 in
Visibility 10.0 miles
Clouds Mostly Cloudy 2600 ft
Heat Index 88 °F
Dew Point 76 °F
Humidity 83%
Rainfall 0.00 in
Snow Depth Not available.
6:32 AM 7:37 PM
Waning Crescent, 13% visible
METAR KCPK 282035Z AUTO 01009KT 10SM BKN026 28/21 A3014 RMK AO2 T02760212

10-Day Weather Forecast

Almanac

Astronomy

Aug. 28, 2016 Rise Set
Actual Time
Civil Twilight
Nautical Twilight
Astronomical Twilight
Moon
Length of Visible Light
Length of Day
Tomorrow will be .
, % of the Moon is Illuminated

Today's Extremes

State Highs State Lows

Community

WunderPhotos

Upload Photos

1,935,689 photos uploaded!

WunderBlog® & News

Nearby

Air Quality

  Air Quality AQ Index Pollutant
Not available.

Snow Depth

Station Depth Elevation

Earthquake Activity

City Distance Mag. Time & Date
Minimum magnitude displayed is 2.5.

Coastal Water Temperatures

Place Temperature

Stations

Nearby Weather Stations

Station Location Temp. Windchill Dew Point Humidity Wind Precip. Elev Updated Type
                   

Watches & Warnings

There are currently no watches in effect.